sensor_id;sensor_type;location;lat;lon;timestamp;temperature;humidity
8459;DHT22;4266;48.816;9.154;2022-10-26T00:00:47;12.90;99.90
8459;DHT22;4266;48.816;9.154;2022-10-26T00:03:13;12.80;99.90
8459;DHT22;4266;48.816;9.154;2022-10-26T00:05:40;12.80;99.90
8459;DHT22;4266;48.816;9.154;2022-10-26T00:08:06;12.80;99.90
8459;DHT22;4266;48.816;9.154;2022-10-26T00:10:33;12.70;99.90
8459;DHT22;4266;48.816;9.154;2022-10-26T00:12:59;12.70;99.90
8459;DHT22;4266;48.816;9.154;2022-10-26T00:15:25;12.70;99.90
8459;DHT22;4266;48.816;9.154;2022-10-26T00:17:51;12.60;99.90
8459;DHT22;4266;48.816;9.154;2022-10-26T00:20:16;12.60;99.90
8459;DHT22;4266;48.816;9.154;2022-10-26T00:22:42;12.60;99.90
8459;DHT22;4266;48.816;9.154;2022-10-26T00:25:08;12.60;99.90
8459;DHT22;4266;48.816;9.154;2022-10-26T00:27:34;12.70;99.90
8459;DHT22;4266;48.816;9.154;2022-10-26T00:30:00;12.70;99.90
8459;DHT22;4266;48.816;9.154;2022-10-26T00:32:26;12.70;99.90
8459;DHT22;4266;48.816;9.154;2022-10-26T00:34:51;12.70;99.90
8459;DHT22;4266;48.816;9.154;2022-10-26T00:37:17;12.70;99.90
8459;DHT22;4266;48.816;9.154;2022-10-26T00:39:43;12.80;99.90
8459;DHT22;4266;48.816;9.154;2022-10-26T00:42:12;12.70;99.90
8459;DHT22;4266;48.816;9.154;2022-10-26T00:47:30;12.60;99.90
8459;DHT22;4266;48.816;9.154;2022-10-26T00:49:53;12.70;99.90
8459;DHT22;4266;48.816;9.154;2022-10-26T00:52:19;12.70;99.90
8459;DHT22;4266;48.816;9.154;2022-10-26T00:54:44;12.90;99.90
8459;DHT22;4266;48.816;9.154;2022-10-26T00:57:10;12.90;99.90
8459;DHT22;4266;48.816;9.154;2022-10-26T00:59:36;13.10;99.90
8459;DHT22;4266;48.816;9.154;2022-10-26T01:02:01;13.10;99.90
8459;DHT22;4266;48.816;9.154;2022-10-26T01:04:28;13.00;99.90
8459;DHT22;4266;48.816;9.154;2022-10-26T01:06:53;13.00;99.90
8459;DHT22;4266;48.816;9.154;2022-10-26T01:09:19;12.90;99.90
8459;DHT22;4266;48.816;9.154;2022-10-26T01:11:45;12.80;99.90
8459;DHT22;4266;48.816;9.154;2022-10-26T01:14:11;12.70;99.90
8459;DHT22;4266;48.816;9.154;2022-10-26T01:17:01;12.80;99.90
8459;DHT22;4266;48.816;9.154;2022-10-26T01:22:19;12.80;99.90
8459;DHT22;4266;48.816;9.154;2022-10-26T01:25:15;12.80;99.90
8459;DHT22;4266;48.816;9.154;2022-10-26T01:27:38;12.80;99.90
8459;DHT22;4266;48.816;9.154;2022-10-26T01:30:38;12.80;99.90
8459;DHT22;4266;48.816;9.154;2022-10-26T01:33:23;12.90;99.90
8459;DHT22;4266;48.816;9.154;2022-10-26T01:35:59;12.90;99.90
8459;DHT22;4266;48.816;9.154;2022-10-26T01:38:23;12.90;99.90
8459;DHT22;4266;48.816;9.154;2022-10-26T01:40:51;12.90;99.90
8459;DHT22;4266;48.816;9.154;2022-10-26T01:43:14;12.90;99.90
8459;DHT22;4266;48.816;9.154;2022-10-26T01:45:41;12.90;99.90
8459;DHT22;4266;48.816;9.154;2022-10-26T01:48:07;12.90;99.90
8459;DHT22;4266;48.816;9.154;2022-10-26T01:50:32;13.00;99.90
8459;DHT22;4266;48.816;9.154;2022-10-26T01:52:58;13.00;99.90
8459;DHT22;4266;48.816;9.154;2022-10-26T01:58:06;12.90;99.90
8459;DHT22;4266;48.816;9.154;2022-10-26T02:00:28;12.90;99.90
8459;DHT22;4266;48.816;9.154;2022-10-26T02:05:44;12.80;99.90
8459;DHT22;4266;48.816;9.154;2022-10-26T02:08:18;12.70;99.90
8459;DHT22;4266;48.816;9.154;2022-10-26T02:10:54;12.60;99.90
8459;DHT22;4266;48.816;9.154;2022-10-26T02:13:20;12.50;99.90
8459;DHT22;4266;48.816;9.154;2022-10-26T02:15:52;12.60;99.90
8459;DHT22;4266;48.816;9.154;2022-10-26T02:18:19;12.50;99.90
8459;DHT22;4266;48.816;9.154;2022-10-26T02:20:42;12.50;99.90
8459;DHT22;4266;48.816;9.154;2022-10-26T02:23:07;12.40;99.90
8459;DHT22;4266;48.816;9.154;2022-10-26T02:25:36;12.40;99.90
8459;DHT22;4266;48.816;9.154;2022-10-26T02:28:01;12.40;99.90
8459;DHT22;4266;48.816;9.154;2022-10-26T02:30:24;12.40;99.90
8459;DHT22;4266;48.816;9.154;2022-10-26T02:32:51;12.50;99.90
8459;DHT22;4266;48.816;9.154;2022-10-26T02:35:16;12.50;99.90
8459;DHT22;4266;48.816;9.154;2022-10-26T02:37:43;12.40;99.90
8459;DHT22;4266;48.816;9.154;2022-10-26T02:40:10;12.40;99.90
8459;DHT22;4266;48.816;9.154;2022-10-26T02:42:36;12.40;99.90
8459;DHT22;4266;48.816;9.154;2022-10-26T02:45:03;12.30;99.90
8459;DHT22;4266;48.816;9.154;2022-10-26T02:47:27;12.20;99.90
8459;DHT22;4266;48.816;9.154;2022-10-26T02:49:53;12.20;99.90
8459;DHT22;4266;48.816;9.154;2022-10-26T02:52:44;12.10;99.90
8459;DHT22;4266;48.816;9.154;2022-10-26T02:55:13;12.10;99.90
8459;DHT22;4266;48.816;9.154;2022-10-26T02:57:37;12.20;99.90
8459;DHT22;4266;48.816;9.154;2022-10-26T03:00:07;12.10;99.90
8459;DHT22;4266;48.816;9.154;2022-10-26T03:02:32;12.10;99.90
8459;DHT22;4266;48.816;9.154;2022-10-26T03:05:05;12.20;99.90
8459;DHT22;4266;48.816;9.154;2022-10-26T03:07:25;12.20;99.90
8459;DHT22;4266;48.816;9.154;2022-10-26T03:09:50;12.10;99.90
8459;DHT22;4266;48.816;9.154;2022-10-26T03:12:16;12.20;99.90
8459;DHT22;4266;48.816;9.154;2022-10-26T03:14:42;12.20;99.90
8459;DHT22;4266;48.816;9.154;2022-10-26T03:17:07;12.30;99.90
8459;DHT22;4266;48.816;9.154;2022-10-26T03:19:34;12.40;99.90
8459;DHT22;4266;48.816;9.154;2022-10-26T03:22:00;12.30;99.90
8459;DHT22;4266;48.816;9.154;2022-10-26T03:24:26;12.30;99.90
8459;DHT22;4266;48.816;9.154;2022-10-26T03:26:51;12.30;99.90
8459;DHT22;4266;48.816;9.154;2022-10-26T03:29:18;12.40;99.90
8459;DHT22;4266;48.816;9.154;2022-10-26T03:31:43;12.30;99.90
8459;DHT22;4266;48.816;9.154;2022-10-26T03:34:09;12.40;99.90
8459;DHT22;4266;48.816;9.154;2022-10-26T03:36:35;12.30;99.90
8459;DHT22;4266;48.816;9.154;2022-10-26T03:39:01;12.40;99.90
8459;DHT22;4266;48.816;9.154;2022-10-26T03:41:28;12.30;99.90
8459;DHT22;4266;48.816;9.154;2022-10-26T03:43:54;12.30;99.90
8459;DHT22;4266;48.816;9.154;2022-10-26T03:46:20;12.30;99.90
8459;DHT22;4266;48.816;9.154;2022-10-26T03:48:45;12.30;99.90
8459;DHT22;4266;48.816;9.154;2022-10-26T03:51:11;12.30;99.90
8459;DHT22;4266;48.816;9.154;2022-10-26T03:53:37;12.40;99.90
8459;DHT22;4266;48.816;9.154;2022-10-26T03:56:04;12.40;99.90
8459;DHT22;4266;48.816;9.154;2022-10-26T03:58:30;12.30;99.90
8459;DHT22;4266;48.816;9.154;2022-10-26T04:00:56;12.30;99.90
8459;DHT22;4266;48.816;9.154;2022-10-26T04:03:22;12.40;99.90
8459;DHT22;4266;48.816;9.154;2022-10-26T04:05:48;12.40;99.90
8459;DHT22;4266;48.816;9.154;2022-10-26T04:08:14;12.50;99.90
8459;DHT22;4266;48.816;9.154;2022-10-26T04:10:41;12.50;99.90
8459;DHT22;4266;48.816;9.154;2022-10-26T04:13:07;12.50;99.90
8459;DHT22;4266;48.816;9.154;2022-10-26T04:15:33;12.60;99.90
8459;DHT22;4266;48.816;9.154;2022-10-26T04:18:00;12.60;99.90
8459;DHT22;4266;48.816;9.154;2022-10-26T04:20:24;12.60;99.90
8459;DHT22;4266;48.816;9.154;2022-10-26T04:22:59;12.70;99.90
8459;DHT22;4266;48.816;9.154;2022-10-26T04:25:25;12.90;99.90
8459;DHT22;4266;48.816;9.154;2022-10-26T04:27:51;12.90;99.90
8459;DHT22;4266;48.816;9.154;2022-10-26T04:30:17;13.10;99.90
8459;DHT22;4266;48.816;9.154;2022-10-26T04:32:44;13.10;99.90
8459;DHT22;4266;48.816;9.154;2022-10-26T04:35:12;13.10;99.90
8459;DHT22;4266;48.816;9.154;2022-10-26T04:37:37;13.10;99.90
8459;DHT22;4266;48.816;9.154;2022-10-26T04:40:04;13.10;99.90
8459;DHT22;4266;48.816;9.154;2022-10-26T04:42:30;13.10;99.90
8459;DHT22;4266;48.816;9.154;2022-10-26T04:44:56;13.00;99.90
8459;DHT22;4266;48.816;9.154;2022-10-26T04:47:22;12.80;99.90
8459;DHT22;4266;48.816;9.154;2022-10-26T04:49:48;12.80;99.90
8459;DHT22;4266;48.816;9.154;2022-10-26T04:52:13;12.80;99.90
8459;DHT22;4266;48.816;9.154;2022-10-26T04:54:41;12.80;99.90
8459;DHT22;4266;48.816;9.154;2022-10-26T04:57:08;12.80;99.90
8459;DHT22;4266;48.816;9.154;2022-10-26T04:59:40;12.80;99.90
8459;DHT22;4266;48.816;9.154;2022-10-26T05:02:23;12.90;99.90
8459;DHT22;4266;48.816;9.154;2022-10-26T05:04:52;13.00;99.90
8459;DHT22;4266;48.816;9.154;2022-10-26T05:07:21;13.00;99.90
8459;DHT22;4266;48.816;9.154;2022-10-26T05:09:52;13.20;99.90
8459;DHT22;4266;48.816;9.154;2022-10-26T05:12:26;13.10;99.90
8459;DHT22;4266;48.816;9.154;2022-10-26T05:14:52;13.30;99.90
8459;DHT22;4266;48.816;9.154;2022-10-26T05:17:19;13.50;99.90
8459;DHT22;4266;48.816;9.154;2022-10-26T05:19:48;13.50;99.90
8459;DHT22;4266;48.816;9.154;2022-10-26T05:22:34;13.30;99.90
8459;DHT22;4266;48.816;9.154;2022-10-26T05:25:04;13.30;99.90
8459;DHT22;4266;48.816;9.154;2022-10-26T05:27:31;13.40;99.90
8459;DHT22;4266;48.816;9.154;2022-10-26T05:29:56;13.30;99.90
8459;DHT22;4266;48.816;9.154;2022-10-26T05:32:22;13.40;99.90
8459;DHT22;4266;48.816;9.154;2022-10-26T05:34:48;13.50;99.90
8459;DHT22;4266;48.816;9.154;2022-10-26T05:37:13;13.50;99.90
8459;DHT22;4266;48.816;9.154;2022-10-26T05:39:39;13.50;99.90
8459;DHT22;4266;48.816;9.154;2022-10-26T05:42:05;13.60;99.90
8459;DHT22;4266;48.816;9.154;2022-10-26T05:44:31;13.50;99.90
8459;DHT22;4266;48.816;9.154;2022-10-26T05:46:57;13.50;99.90
8459;DHT22;4266;48.816;9.154;2022-10-26T05:49:22;13.70;99.90
8459;DHT22;4266;48.816;9.154;2022-10-26T05:51:48;13.60;99.90
8459;DHT22;4266;48.816;9.154;2022-10-26T05:54:14;13.60;99.90
8459;DHT22;4266;48.816;9.154;2022-10-26T05:56:40;13.60;99.90
8459;DHT22;4266;48.816;9.154;2022-10-26T05:59:13;13.70;99.90
8459;DHT22;4266;48.816;9.154;2022-10-26T06:04:42;13.70;99.90
8459;DHT22;4266;48.816;9.154;2022-10-26T06:07:12;13.80;99.90
8459;DHT22;4266;48.816;9.154;2022-10-26T06:09:38;13.90;99.90
8459;DHT22;4266;48.816;9.154;2022-10-26T06:12:04;14.10;99.90
8459;DHT22;4266;48.816;9.154;2022-10-26T06:14:31;14.10;99.90
8459;DHT22;4266;48.816;9.154;2022-10-26T06:17:30;14.10;99.90
8459;DHT22;4266;48.816;9.154;2022-10-26T06:19:58;14.20;99.90
8459;DHT22;4266;48.816;9.154;2022-10-26T06:22:43;14.20;99.90
8459;DHT22;4266;48.816;9.154;2022-10-26T06:25:42;14.10;99.90
8459;DHT22;4266;48.816;9.154;2022-10-26T06:27:58;14.40;99.90
8459;DHT22;4266;48.816;9.154;2022-10-26T06:30:21;14.40;99.90
8459;DHT22;4266;48.816;9.154;2022-10-26T06:32:47;14.50;99.90
8459;DHT22;4266;48.816;9.154;2022-10-26T06:38:13;14.70;99.90
8459;DHT22;4266;48.816;9.154;2022-10-26T06:40:37;14.50;99.90
8459;DHT22;4266;48.816;9.154;2022-10-26T06:43:02;14.40;99.90
8459;DHT22;4266;48.816;9.154;2022-10-26T06:45:29;14.40;99.90
8459;DHT22;4266;48.816;9.154;2022-10-26T06:48:01;14.40;99.90
8459;DHT22;4266;48.816;9.154;2022-10-26T06:50:36;14.50;99.90
8459;DHT22;4266;48.816;9.154;2022-10-26T06:55:50;14.40;99.90
8459;DHT22;4266;48.816;9.154;2022-10-26T06:58:18;14.50;99.90
8459;DHT22;4266;48.816;9.154;2022-10-26T07:00:45;14.50;99.90
8459;DHT22;4266;48.816;9.154;2022-10-26T07:03:10;14.50;99.90
8459;DHT22;4266;48.816;9.154;2022-10-26T07:05:36;14.50;99.90
8459;DHT22;4266;48.816;9.154;2022-10-26T07:08:03;14.50;99.90
8459;DHT22;4266;48.816;9.154;2022-10-26T07:10:29;14.70;99.90
8459;DHT22;4266;48.816;9.154;2022-10-26T07:12:56;14.60;99.90
8459;DHT22;4266;48.816;9.154;2022-10-26T07:15:21;14.60;99.90
8459;DHT22;4266;48.816;9.154;2022-10-26T07:17:47;14.50;99.90
8459;DHT22;4266;48.816;9.154;2022-10-26T07:20:14;14.60;99.90
8459;DHT22;4266;48.816;9.154;2022-10-26T07:22:39;14.60;99.90
8459;DHT22;4266;48.816;9.154;2022-10-26T07:25:06;14.70;99.90
8459;DHT22;4266;48.816;9.154;2022-10-26T07:27:31;14.80;99.90
8459;DHT22;4266;48.816;9.154;2022-10-26T07:29:57;14.80;99.90
8459;DHT22;4266;48.816;9.154;2022-10-26T07:32:24;14.80;99.90
8459;DHT22;4266;48.816;9.154;2022-10-26T07:34:49;14.80;99.90
8459;DHT22;4266;48.816;9.154;2022-10-26T07:37:16;15.00;99.90
8459;DHT22;4266;48.816;9.154;2022-10-26T07:39:42;15.10;99.90
8459;DHT22;4266;48.816;9.154;2022-10-26T07:42:08;15.10;99.90
8459;DHT22;4266;48.816;9.154;2022-10-26T07:44:34;15.30;99.90
8459;DHT22;4266;48.816;9.154;2022-10-26T07:46:59;15.40;99.90
8459;DHT22;4266;48.816;9.154;2022-10-26T07:49:25;15.50;99.90
8459;DHT22;4266;48.816;9.154;2022-10-26T07:51:51;15.60;99.90
8459;DHT22;4266;48.816;9.154;2022-10-26T07:54:16;15.60;99.90
8459;DHT22;4266;48.816;9.154;2022-10-26T07:56:42;15.60;99.90
8459;DHT22;4266;48.816;9.154;2022-10-26T07:59:10;15.70;99.90
8459;DHT22;4266;48.816;9.154;2022-10-26T08:01:33;15.80;99.90
8459;DHT22;4266;48.816;9.154;2022-10-26T08:03:59;15.90;99.90
8459;DHT22;4266;48.816;9.154;2022-10-26T08:06:25;15.80;99.90
8459;DHT22;4266;48.816;9.154;2022-10-26T08:08:50;15.80;99.90
8459;DHT22;4266;48.816;9.154;2022-10-26T08:11:16;15.90;99.90
8459;DHT22;4266;48.816;9.154;2022-10-26T08:13:42;16.00;99.90
8459;DHT22;4266;48.816;9.154;2022-10-26T08:16:08;16.10;99.90
8459;DHT22;4266;48.816;9.154;2022-10-26T08:18:35;16.10;99.90
8459;DHT22;4266;48.816;9.154;2022-10-26T08:21:01;16.10;99.90
8459;DHT22;4266;48.816;9.154;2022-10-26T08:23:26;16.00;99.90
8459;DHT22;4266;48.816;9.154;2022-10-26T08:25:56;16.20;99.90
8459;DHT22;4266;48.816;9.154;2022-10-26T08:28:18;16.40;99.90
8459;DHT22;4266;48.816;9.154;2022-10-26T08:30:44;16.40;99.90
8459;DHT22;4266;48.816;9.154;2022-10-26T08:33:10;16.40;99.90
8459;DHT22;4266;48.816;9.154;2022-10-26T08:35:35;16.60;99.90
8459;DHT22;4266;48.816;9.154;2022-10-26T08:38:02;16.70;99.90
8459;DHT22;4266;48.816;9.154;2022-10-26T08:40:29;16.70;99.90
8459;DHT22;4266;48.816;9.154;2022-10-26T08:43:01;16.60;99.90
8459;DHT22;4266;48.816;9.154;2022-10-26T08:45:25;16.50;99.90
8459;DHT22;4266;48.816;9.154;2022-10-26T08:47:52;16.50;99.90
8459;DHT22;4266;48.816;9.154;2022-10-26T08:50:26;16.50;99.90
8459;DHT22;4266;48.816;9.154;2022-10-26T08:53:07;16.60;99.90
8459;DHT22;4266;48.816;9.154;2022-10-26T08:55:37;16.60;99.90
8459;DHT22;4266;48.816;9.154;2022-10-26T08:58:00;16.70;99.90
8459;DHT22;4266;48.816;9.154;2022-10-26T09:00:25;16.70;99.90
8459;DHT22;4266;48.816;9.154;2022-10-26T09:02:51;17.00;99.90
8459;DHT22;4266;48.816;9.154;2022-10-26T09:05:17;17.10;99.90
8459;DHT22;4266;48.816;9.154;2022-10-26T09:07:47;17.40;99.90
8459;DHT22;4266;48.816;9.154;2022-10-26T09:13:19;18.20;99.30
8459;DHT22;4266;48.816;9.154;2022-10-26T09:15:59;19.00;98.80
8459;DHT22;4266;48.816;9.154;2022-10-26T09:21:12;19.70;97.80
8459;DHT22;4266;48.816;9.154;2022-10-26T09:23:57;21.10;96.90
8459;DHT22;4266;48.816;9.154;2022-10-26T09:26:35;21.10;96.90
8459;DHT22;4266;48.816;9.154;2022-10-26T09:29:00;21.40;97.20
8459;DHT22;4266;48.816;9.154;2022-10-26T09:31:25;22.00;96.00
8459;DHT22;4266;48.816;9.154;2022-10-26T09:33:51;23.60;95.20
8459;DHT22;4266;48.816;9.154;2022-10-26T09:36:18;23.20;94.90
8459;DHT22;4266;48.816;9.154;2022-10-26T09:38:49;23.40;94.50
8459;DHT22;4266;48.816;9.154;2022-10-26T09:41:37;25.60;93.80
8459;DHT22;4266;48.816;9.154;2022-10-26T09:44:07;25.50;93.70
8459;DHT22;4266;48.816;9.154;2022-10-26T09:46:31;28.60;91.20
8459;DHT22;4266;48.816;9.154;2022-10-26T09:48:57;30.20;88.80
8459;DHT22;4266;48.816;9.154;2022-10-26T09:51:21;30.50;84.70
8459;DHT22;4266;48.816;9.154;2022-10-26T09:53:47;28.40;85.70
8459;DHT22;4266;48.816;9.154;2022-10-26T09:56:13;27.10;85.10
8459;DHT22;4266;48.816;9.154;2022-10-26T09:58:41;26.20;87.40
8459;DHT22;4266;48.816;9.154;2022-10-26T10:01:19;25.10;88.00
8459;DHT22;4266;48.816;9.154;2022-10-26T10:03:32;25.10;88.00
8459;DHT22;4266;48.816;9.154;2022-10-26T10:06:15;24.50;88.10
8459;DHT22;4266;48.816;9.154;2022-10-26T10:08:40;23.30;90.10
8459;DHT22;4266;48.816;9.154;2022-10-26T10:11:09;23.20;89.80
8459;DHT22;4266;48.816;9.154;2022-10-26T10:13:37;22.80;90.10
8459;DHT22;4266;48.816;9.154;2022-10-26T10:16:03;22.50;90.50
8459;DHT22;4266;48.816;9.154;2022-10-26T10:18:28;22.50;91.40
8459;DHT22;4266;48.816;9.154;2022-10-26T10:20:55;22.30;91.70
8459;DHT22;4266;48.816;9.154;2022-10-26T10:23:26;22.50;91.70
8459;DHT22;4266;48.816;9.154;2022-10-26T10:25:57;22.30;91.20
8459;DHT22;4266;48.816;9.154;2022-10-26T10:28:18;25.10;90.20
8459;DHT22;4266;48.816;9.154;2022-10-26T10:30:51;25.20;90.50
8459;DHT22;4266;48.816;9.154;2022-10-26T10:33:10;25.20;90.40
8459;DHT22;4266;48.816;9.154;2022-10-26T10:35:35;25.30;90.20
8459;DHT22;4266;48.816;9.154;2022-10-26T10:38:01;28.80;87.30
8459;DHT22;4266;48.816;9.154;2022-10-26T10:40:27;28.00;85.60
8459;DHT22;4266;48.816;9.154;2022-10-26T10:42:56;27.90;85.50
8459;DHT22;4266;48.816;9.154;2022-10-26T10:45:24;27.20;85.10
8459;DHT22;4266;48.816;9.154;2022-10-26T10:47:57;27.60;84.70
8459;DHT22;4266;48.816;9.154;2022-10-26T10:50:23;27.50;84.60
8459;DHT22;4266;48.816;9.154;2022-10-26T10:52:49;26.50;84.50
8459;DHT22;4266;48.816;9.154;2022-10-26T10:55:16;26.50;84.30
8459;DHT22;4266;48.816;9.154;2022-10-26T10:57:58;26.10;84.30
8459;DHT22;4266;48.816;9.154;2022-10-26T11:00:23;25.50;85.20
8459;DHT22;4266;48.816;9.154;2022-10-26T11:03:14;25.30;85.70
8459;DHT22;4266;48.816;9.154;2022-10-26T11:06:14;28.30;83.80
8459;DHT22;4266;48.816;9.154;2022-10-26T11:08:46;31.70;81.60
8459;DHT22;4266;48.816;9.154;2022-10-26T11:11:31;31.20;78.20
8459;DHT22;4266;48.816;9.154;2022-10-26T11:14:14;32.90;76.90
8459;DHT22;4266;48.816;9.154;2022-10-26T11:16:43;32.80;76.80
8459;DHT22;4266;48.816;9.154;2022-10-26T11:21:47;29.10;75.30
8459;DHT22;4266;48.816;9.154;2022-10-26T11:24:24;27.60;77.60
8459;DHT22;4266;48.816;9.154;2022-10-26T11:27:15;26.90;77.50
8459;DHT22;4266;48.816;9.154;2022-10-26T11:32:26;27.30;77.60
8459;DHT22;4266;48.816;9.154;2022-10-26T11:34:59;27.30;78.70
8459;DHT22;4266;48.816;9.154;2022-10-26T11:37:43;29.20;77.50
8459;DHT22;4266;48.816;9.154;2022-10-26T11:40:16;27.60;77.80
8459;DHT22;4266;48.816;9.154;2022-10-26T11:42:42;27.60;77.70
8459;DHT22;4266;48.816;9.154;2022-10-26T11:45:22;27.40;76.70
8459;DHT22;4266;48.816;9.154;2022-10-26T11:47:51;26.60;77.10
8459;DHT22;4266;48.816;9.154;2022-10-26T11:50:20;26.30;79.50
8459;DHT22;4266;48.816;9.154;2022-10-26T11:52:46;26.70;79.90
8459;DHT22;4266;48.816;9.154;2022-10-26T11:55:11;26.80;79.90
8459;DHT22;4266;48.816;9.154;2022-10-26T11:57:37;26.90;79.40
8459;DHT22;4266;48.816;9.154;2022-10-26T12:00:07;26.90;79.40
8459;DHT22;4266;48.816;9.154;2022-10-26T12:02:37;27.10;78.70
8459;DHT22;4266;48.816;9.154;2022-10-26T12:05:04;26.80;78.30
8459;DHT22;4266;48.816;9.154;2022-10-26T12:07:29;26.30;78.70
8459;DHT22;4266;48.816;9.154;2022-10-26T12:09:54;26.30;78.80
8459;DHT22;4266;48.816;9.154;2022-10-26T12:12:23;25.80;78.80
8459;DHT22;4266;48.816;9.154;2022-10-26T12:14:51;25.30;79.10
8459;DHT22;4266;48.816;9.154;2022-10-26T12:17:30;25.10;79.90
8459;DHT22;4266;48.816;9.154;2022-10-26T12:20:10;25.00;81.40
8459;DHT22;4266;48.816;9.154;2022-10-26T12:22:36;25.10;81.80
8459;DHT22;4266;48.816;9.154;2022-10-26T12:27:51;25.50;81.10
8459;DHT22;4266;48.816;9.154;2022-10-26T12:30:30;25.40;79.40
8459;DHT22;4266;48.816;9.154;2022-10-26T12:32:56;25.30;80.40
8459;DHT22;4266;48.816;9.154;2022-10-26T12:35:41;25.10;80.20
8459;DHT22;4266;48.816;9.154;2022-10-26T12:38:55;25.60;81.50
8459;DHT22;4266;48.816;9.154;2022-10-26T12:41:18;25.10;82.10
8459;DHT22;4266;48.816;9.154;2022-10-26T12:43:43;24.90;81.20
8459;DHT22;4266;48.816;9.154;2022-10-26T12:49:11;24.30;82.30
8459;DHT22;4266;48.816;9.154;2022-10-26T12:51:40;24.60;81.40
8459;DHT22;4266;48.816;9.154;2022-10-26T12:56:55;25.00;81.40
8459;DHT22;4266;48.816;9.154;2022-10-26T13:02:30;24.80;81.10
8459;DHT22;4266;48.816;9.154;2022-10-26T13:07:43;25.80;83.60
8459;DHT22;4266;48.816;9.154;2022-10-26T13:10:20;26.90;78.50
8459;DHT22;4266;48.816;9.154;2022-10-26T13:12:50;26.90;78.50
8459;DHT22;4266;48.816;9.154;2022-10-26T13:15:25;26.30;79.00
8459;DHT22;4266;48.816;9.154;2022-10-26T13:17:51;26.30;78.10
8459;DHT22;4266;48.816;9.154;2022-10-26T13:20:16;26.30;78.10
8459;DHT22;4266;48.816;9.154;2022-10-26T13:22:44;26.90;78.90
8459;DHT22;4266;48.816;9.154;2022-10-26T13:25:15;27.30;78.20
8459;DHT22;4266;48.816;9.154;2022-10-26T13:27:43;28.10;77.70
8459;DHT22;4266;48.816;9.154;2022-10-26T13:30:15;27.40;77.50
8459;DHT22;4266;48.816;9.154;2022-10-26T13:32:37;27.40;77.50
8459;DHT22;4266;48.816;9.154;2022-10-26T13:35:01;27.40;77.70
8459;DHT22;4266;48.816;9.154;2022-10-26T13:37:28;27.00;77.70
8459;DHT22;4266;48.816;9.154;2022-10-26T13:39:52;26.90;78.30
8459;DHT22;4266;48.816;9.154;2022-10-26T13:42:19;27.20;77.00
8459;DHT22;4266;48.816;9.154;2022-10-26T13:44:50;27.80;77.30
8459;DHT22;4266;48.816;9.154;2022-10-26T13:47:14;27.30;78.40
8459;DHT22;4266;48.816;9.154;2022-10-26T13:49:40;27.00;78.00
8459;DHT22;4266;48.816;9.154;2022-10-26T13:52:10;27.00;78.00
8459;DHT22;4266;48.816;9.154;2022-10-26T13:54:36;27.00;77.00
8459;DHT22;4266;48.816;9.154;2022-10-26T13:57:18;26.30;77.40
8459;DHT22;4266;48.816;9.154;2022-10-26T13:59:42;26.00;76.60
8459;DHT22;4266;48.816;9.154;2022-10-26T14:02:22;25.90;78.40
8459;DHT22;4266;48.816;9.154;2022-10-26T14:04:53;25.30;78.00
8459;DHT22;4266;48.816;9.154;2022-10-26T14:07:18;25.30;78.00
8459;DHT22;4266;48.816;9.154;2022-10-26T14:09:43;25.60;79.00
8459;DHT22;4266;48.816;9.154;2022-10-26T14:12:09;25.40;79.50
8459;DHT22;4266;48.816;9.154;2022-10-26T14:14:35;25.30;79.50
8459;DHT22;4266;48.816;9.154;2022-10-26T14:17:00;25.10;80.90
8459;DHT22;4266;48.816;9.154;2022-10-26T14:19:30;24.90;79.10
8459;DHT22;4266;48.816;9.154;2022-10-26T14:21:54;24.60;78.80
8459;DHT22;4266;48.816;9.154;2022-10-26T14:24:21;24.70;78.10
8459;DHT22;4266;48.816;9.154;2022-10-26T14:26:45;24.50;79.40
8459;DHT22;4266;48.816;9.154;2022-10-26T14:29:16;24.00;78.50
8459;DHT22;4266;48.816;9.154;2022-10-26T14:31:41;24.00;78.80
8459;DHT22;4266;48.816;9.154;2022-10-26T14:34:08;24.00;78.70
8459;DHT22;4266;48.816;9.154;2022-10-26T14:36:36;23.70;78.90
8459;DHT22;4266;48.816;9.154;2022-10-26T14:39:03;23.70;79.70
8459;DHT22;4266;48.816;9.154;2022-10-26T14:41:27;23.70;79.60
8459;DHT22;4266;48.816;9.154;2022-10-26T14:43:54;23.70;79.90
8459;DHT22;4266;48.816;9.154;2022-10-26T14:46:19;23.70;81.90
8459;DHT22;4266;48.816;9.154;2022-10-26T14:48:54;23.40;82.00
8459;DHT22;4266;48.816;9.154;2022-10-26T14:51:19;23.20;83.90
8459;DHT22;4266;48.816;9.154;2022-10-26T14:53:49;23.10;84.20
8459;DHT22;4266;48.816;9.154;2022-10-26T14:56:21;22.80;84.70
8459;DHT22;4266;48.816;9.154;2022-10-26T14:58:46;22.50;84.70
8459;DHT22;4266;48.816;9.154;2022-10-26T15:01:29;22.50;85.10
8459;DHT22;4266;48.816;9.154;2022-10-26T15:03:56;22.30;82.00
8459;DHT22;4266;48.816;9.154;2022-10-26T15:09:02;22.20;84.30
8459;DHT22;4266;48.816;9.154;2022-10-26T15:11:28;22.00;84.70
8459;DHT22;4266;48.816;9.154;2022-10-26T15:13:54;21.80;85.70
8459;DHT22;4266;48.816;9.154;2022-10-26T15:16:20;21.70;84.10
8459;DHT22;4266;48.816;9.154;2022-10-26T15:18:45;21.60;85.20
8459;DHT22;4266;48.816;9.154;2022-10-26T15:21:22;21.60;83.90
8459;DHT22;4266;48.816;9.154;2022-10-26T15:23:46;21.40;84.20
8459;DHT22;4266;48.816;9.154;2022-10-26T15:26:12;21.30;84.50
8459;DHT22;4266;48.816;9.154;2022-10-26T15:28:39;21.20;84.90
8459;DHT22;4266;48.816;9.154;2022-10-26T15:31:28;21.00;85.30
8459;DHT22;4266;48.816;9.154;2022-10-26T15:34:11;20.90;86.00
8459;DHT22;4266;48.816;9.154;2022-10-26T15:36:33;20.70;86.80
8459;DHT22;4266;48.816;9.154;2022-10-26T15:38:59;20.40;87.40
8459;DHT22;4266;48.816;9.154;2022-10-26T15:41:27;20.40;87.30
8459;DHT22;4266;48.816;9.154;2022-10-26T15:43:52;20.30;88.60
8459;DHT22;4266;48.816;9.154;2022-10-26T15:46:18;20.20;88.00
8459;DHT22;4266;48.816;9.154;2022-10-26T15:48:45;20.20;88.10
8459;DHT22;4266;48.816;9.154;2022-10-26T15:51:09;20.10;87.70
8459;DHT22;4266;48.816;9.154;2022-10-26T15:53:34;20.10;87.50
8459;DHT22;4266;48.816;9.154;2022-10-26T15:56:00;20.10;87.70
8459;DHT22;4266;48.816;9.154;2022-10-26T15:58:26;19.80;89.70
8459;DHT22;4266;48.816;9.154;2022-10-26T16:00:51;19.60;90.20
8459;DHT22;4266;48.816;9.154;2022-10-26T16:03:19;19.40;90.70
8459;DHT22;4266;48.816;9.154;2022-10-26T16:05:43;18.90;92.10
8459;DHT22;4266;48.816;9.154;2022-10-26T16:08:13;18.70;92.60
8459;DHT22;4266;48.816;9.154;2022-10-26T16:10:38;18.60;92.80
8459;DHT22;4266;48.816;9.154;2022-10-26T16:13:03;18.60;92.80
8459;DHT22;4266;48.816;9.154;2022-10-26T16:15:29;18.60;92.80
8459;DHT22;4266;48.816;9.154;2022-10-26T16:17:55;18.50;92.90
8459;DHT22;4266;48.816;9.154;2022-10-26T16:20:22;18.20;93.30
8459;DHT22;4266;48.816;9.154;2022-10-26T16:22:47;18.00;93.70
8459;DHT22;4266;48.816;9.154;2022-10-26T16:25:14;18.00;94.10
8459;DHT22;4266;48.816;9.154;2022-10-26T16:27:39;18.10;95.00
8459;DHT22;4266;48.816;9.154;2022-10-26T16:30:06;18.00;95.40
8459;DHT22;4266;48.816;9.154;2022-10-26T16:32:32;17.90;96.00
8459;DHT22;4266;48.816;9.154;2022-10-26T16:34:57;17.80;96.10
8459;DHT22;4266;48.816;9.154;2022-10-26T16:37:23;17.80;96.00
8459;DHT22;4266;48.816;9.154;2022-10-26T16:39:49;17.70;96.20
8459;DHT22;4266;48.816;9.154;2022-10-26T16:42:15;17.30;96.80
8459;DHT22;4266;48.816;9.154;2022-10-26T16:44:41;17.00;97.20
8459;DHT22;4266;48.816;9.154;2022-10-26T16:47:07;16.90;97.90
8459;DHT22;4266;48.816;9.154;2022-10-26T16:49:33;16.90;98.30
8459;DHT22;4266;48.816;9.154;2022-10-26T16:51:59;16.90;98.30
8459;DHT22;4266;48.816;9.154;2022-10-26T16:54:25;16.90;98.40
8459;DHT22;4266;48.816;9.154;2022-10-26T16:56:50;17.00;98.50